createdAt,value
2022-10-11T00:00:00.317Z,12.06
2022-10-11T00:02:26.794Z,12.14
2022-10-11T00:04:53.199Z,12.11
2022-10-11T00:07:19.893Z,12.01
2022-10-11T00:09:46.361Z,11.96
2022-10-11T00:12:12.730Z,11.86
2022-10-11T00:14:39.160Z,11.86
2022-10-11T00:17:07.792Z,11.65
2022-10-11T00:19:34.358Z,11.48
2022-10-11T00:22:00.799Z,11.29
2022-10-11T00:24:27.192Z,11.29
2022-10-11T00:26:53.557Z,11.24
2022-10-11T00:29:20.007Z,11.38
2022-10-11T00:31:46.381Z,11.47
2022-10-11T00:34:13.267Z,11.60
2022-10-11T00:36:39.633Z,11.76
2022-10-11T00:39:06.249Z,11.81
2022-10-11T00:41:32.644Z,11.84
2022-10-11T00:44:28.119Z,11.89
2022-10-11T00:46:57.291Z,11.92
2022-10-11T00:49:23.629Z,11.97
2022-10-11T00:51:54.985Z,12.00
2022-10-11T00:54:23.872Z,11.99
2022-10-11T00:56:53.100Z,12.00
2022-10-11T00:59:22.868Z,12.02
2022-10-11T01:01:49.437Z,12.04
2022-10-11T01:04:15.920Z,12.01
2022-10-11T01:06:42.736Z,11.91
2022-10-11T01:09:09.702Z,11.92
2022-10-11T01:11:37.759Z,11.85
2022-10-11T01:14:07.221Z,11.92
2022-10-11T01:16:39.572Z,11.93
2022-10-11T01:19:12.067Z,11.86
2022-10-11T01:21:46.599Z,11.77
2022-10-11T01:24:19.236Z,11.72
2022-10-11T01:26:56.597Z,11.72
2022-10-11T01:29:44.318Z,11.72
2022-10-11T01:32:10.687Z,11.68
2022-10-11T01:34:46.107Z,11.71
2022-10-11T01:37:34.022Z,11.73
2022-10-11T01:40:26.840Z,11.68
2022-10-11T01:42:54.468Z,11.65
2022-10-11T01:45:21.713Z,11.67
2022-10-11T01:47:48.634Z,11.71
2022-10-11T01:50:34.129Z,11.57
2022-10-11T01:53:08.637Z,11.54
2022-10-11T01:55:43.553Z,11.54
2022-10-11T01:58:15.167Z,11.57
2022-10-11T02:01:07.885Z,11.60
2022-10-11T02:03:43.430Z,11.56
2022-10-11T02:06:12.387Z,11.63
2022-10-11T02:08:41.953Z,11.63
2022-10-11T02:11:24.311Z,11.60
2022-10-11T02:13:54.473Z,11.51
2022-10-11T02:16:26.086Z,11.53
2022-10-11T02:18:52.821Z,11.55
2022-10-11T02:21:20.127Z,11.54
2022-10-11T02:24:15.892Z,11.47
2022-10-11T02:26:45.865Z,11.33
2022-10-11T02:29:15.014Z,11.21
2022-10-11T02:31:42.043Z,11.18
2022-10-11T02:34:14.209Z,11.14
2022-10-11T02:36:43.735Z,11.08
2022-10-11T02:39:39.828Z,11.02
2022-10-11T02:42:08.260Z,10.90
2022-10-11T02:44:40.447Z,10.81
2022-10-11T02:47:07.613Z,10.76
2022-10-11T02:49:34.565Z,10.77
2022-10-11T02:52:01.020Z,10.79
2022-10-11T02:54:27.701Z,10.77
2022-10-11T02:56:54.084Z,10.75
2022-10-11T02:59:20.542Z,10.72
2022-10-11T03:01:47.012Z,10.70
2022-10-11T03:04:13.419Z,10.71
2022-10-11T03:06:39.824Z,10.67
2022-10-11T03:09:09.149Z,10.75
2022-10-11T03:11:35.568Z,10.75
2022-10-11T03:14:01.945Z,10.73
2022-10-11T03:16:28.294Z,10.73
2022-10-11T03:18:54.637Z,10.76
2022-10-11T03:21:21.070Z,10.75
2022-10-11T03:23:47.447Z,10.81
2022-10-11T03:26:13.943Z,10.87
2022-10-11T03:28:40.326Z,10.90
2022-10-11T03:31:06.693Z,10.88
2022-10-11T03:33:33.033Z,10.85
2022-10-11T03:35:59.407Z,10.82
2022-10-11T03:38:25.774Z,10.83
2022-10-11T03:40:52.152Z,10.79
2022-10-11T03:43:18.493Z,10.73
2022-10-11T03:45:45.104Z,10.71
2022-10-11T03:48:11.476Z,10.69
2022-10-11T03:50:37.966Z,10.68
2022-10-11T03:53:05.152Z,10.70
2022-10-11T03:55:31.659Z,10.69
2022-10-11T03:57:58.074Z,10.66
2022-10-11T04:00:24.506Z,10.57
2022-10-11T04:02:50.900Z,10.52
2022-10-11T04:05:17.327Z,10.45
2022-10-11T04:07:43.715Z,10.43
2022-10-11T04:10:10.087Z,10.43
2022-10-11T04:12:36.990Z,10.48
2022-10-11T04:15:03.590Z,10.46
2022-10-11T04:17:29.966Z,10.43
2022-10-11T04:19:56.302Z,10.40
2022-10-11T04:22:31.755Z,10.36
2022-10-11T04:24:58.261Z,10.28
2022-10-11T04:27:27.563Z,10.21
2022-10-11T04:29:54.438Z,10.09
2022-10-11T04:32:23.458Z,10.10
2022-10-11T04:34:59.223Z,9.95
2022-10-11T04:37:25.902Z,9.92
2022-10-11T04:39:52.320Z,9.88
2022-10-11T04:42:18.720Z,9.78
2022-10-11T04:44:45.044Z,9.73
2022-10-11T04:47:11.460Z,9.74
2022-10-11T04:49:37.827Z,9.74
2022-10-11T04:52:04.305Z,9.66
2022-10-11T04:54:30.708Z,9.69
2022-10-11T04:56:57.142Z,9.62
2022-10-11T04:59:23.522Z,9.68
2022-10-11T05:01:49.894Z,9.68
2022-10-11T05:04:16.223Z,9.68
2022-10-11T05:06:42.626Z,9.58
2022-10-11T05:09:08.996Z,9.56
2022-10-11T05:11:35.426Z,9.67
2022-10-11T05:14:01.785Z,9.76
2022-10-11T05:16:28.354Z,9.65
2022-10-11T05:18:54.703Z,9.51
2022-10-11T05:21:22.548Z,9.46
2022-10-11T05:23:50.990Z,9.42
2022-10-11T05:26:17.810Z,9.25
2022-10-11T05:28:44.272Z,9.20
2022-10-11T05:31:10.782Z,9.23
2022-10-11T05:33:37.348Z,9.23
2022-10-11T05:36:04.489Z,9.25
2022-10-11T05:38:31.296Z,9.18
2022-10-11T05:41:02.109Z,9.19
2022-10-11T05:43:29.125Z,9.21
2022-10-11T05:45:56.216Z,9.24
2022-10-11T05:48:23.998Z,9.22
2022-10-11T05:50:50.358Z,9.21
2022-10-11T05:53:16.873Z,9.23
2022-10-11T05:55:43.369Z,9.32
2022-10-11T05:58:14.023Z,9.32
2022-10-11T06:00:40.991Z,9.20
2022-10-11T06:03:08.283Z,9.11
2022-10-11T06:05:34.895Z,9.11
2022-10-11T06:08:01.611Z,9.17
2022-10-11T06:10:28.112Z,9.22
2022-10-11T06:12:54.553Z,9.17
2022-10-11T06:15:20.901Z,9.18
2022-10-11T06:17:47.477Z,9.21
2022-10-11T06:20:13.855Z,9.24
2022-10-11T06:22:40.259Z,9.15
2022-10-11T06:25:07.327Z,9.09
2022-10-11T06:27:33.692Z,9.06
2022-10-11T06:30:00.133Z,8.98
2022-10-11T06:32:26.786Z,9.02
2022-10-11T06:34:53.174Z,8.93
2022-10-11T06:37:19.579Z,9.01
2022-10-11T06:39:46.345Z,9.07
2022-10-11T06:42:13.112Z,9.13
2022-10-11T06:44:39.485Z,9.12
2022-10-11T06:47:06.463Z,9.11
2022-10-11T06:49:33.199Z,8.87
2022-10-11T06:51:59.645Z,8.78
2022-10-11T06:54:26.078Z,8.94
2022-10-11T06:56:52.481Z,9.12
2022-10-11T06:59:19.143Z,8.88
2022-10-11T07:01:45.570Z,8.84
2022-10-11T07:04:11.973Z,8.86
2022-10-11T07:06:39.892Z,8.57
2022-10-11T07:09:07.025Z,8.52
2022-10-11T07:11:33.969Z,8.64
2022-10-11T07:14:01.918Z,8.78
2022-10-11T07:16:28.655Z,8.93
2022-10-11T07:19:00.287Z,8.94
2022-10-11T07:21:27.885Z,8.66
2022-10-11T07:23:54.249Z,8.60
2022-10-11T07:26:20.720Z,8.70
2022-10-11T07:28:47.381Z,8.71
2022-10-11T07:31:16.073Z,8.54
2022-10-11T07:33:42.466Z,8.27
2022-10-11T07:36:09.457Z,8.43
2022-10-11T07:38:38.273Z,8.19
2022-10-11T07:41:05.429Z,8.20
2022-10-11T07:43:31.942Z,8.39
2022-10-11T07:46:04.071Z,8.20
2022-10-11T07:48:31.450Z,8.40
2022-10-11T07:51:08.592Z,8.54
2022-10-11T07:53:38.857Z,8.66
2022-10-11T07:56:05.540Z,8.99
2022-10-11T07:58:32.158Z,8.90
2022-10-11T08:00:58.618Z,9.13
2022-10-11T08:03:25.094Z,9.00
2022-10-11T08:05:52.499Z,9.10
2022-10-11T08:08:19.409Z,9.19
2022-10-11T08:10:45.840Z,9.02
2022-10-11T08:13:12.349Z,8.92
2022-10-11T08:15:38.753Z,9.16
2022-10-11T08:18:05.494Z,9.40
2022-10-11T08:20:33.074Z,9.55
2022-10-11T08:22:59.468Z,9.60
2022-10-11T08:25:25.881Z,9.72
2022-10-11T08:27:52.340Z,9.80
2022-10-11T08:30:18.839Z,9.69
2022-10-11T08:32:45.292Z,9.31
2022-10-11T08:35:11.637Z,9.35
2022-10-11T08:37:38.057Z,9.41
2022-10-11T08:40:05.857Z,9.39
2022-10-11T08:42:38.289Z,9.54
2022-10-11T08:45:11.370Z,9.73
2022-10-11T08:47:40.691Z,9.55
2022-10-11T08:50:13.281Z,9.26
2022-10-11T08:52:44.716Z,9.34
2022-10-11T08:55:23.343Z,9.57
2022-10-11T08:57:53.092Z,9.69
2022-10-11T09:00:19.854Z,9.69
2022-10-11T09:03:06.879Z,9.68
2022-10-11T09:05:34.796Z,9.62
2022-10-11T09:08:10.481Z,9.84
2022-10-11T09:10:55.421Z,10.05
2022-10-11T09:13:31.034Z,10.31
2022-10-11T09:16:26.836Z,10.41
2022-10-11T09:18:59.128Z,10.38
2022-10-11T09:21:44.188Z,10.39
2022-10-11T09:24:21.871Z,10.57
2022-10-11T09:27:05.197Z,10.54
2022-10-11T09:29:43.876Z,10.60
2022-10-11T09:32:17.734Z,10.60
2022-10-11T09:34:44.115Z,10.57
2022-10-11T09:37:27.621Z,10.59
2022-10-11T09:39:58.701Z,10.68
2022-10-11T09:42:25.050Z,10.57
2022-10-11T09:44:51.941Z,10.69
2022-10-11T09:47:28.895Z,10.66
2022-10-11T09:50:06.656Z,10.61
2022-10-11T09:52:33.451Z,10.64
2022-10-11T09:55:01.243Z,10.71
2022-10-11T09:57:29.221Z,10.66
2022-10-11T10:00:20.354Z,10.60
2022-10-11T10:02:48.824Z,10.52
2022-10-11T10:05:28.675Z,10.77
2022-10-11T10:07:59.744Z,11.01
2022-10-11T10:10:33.960Z,10.96
2022-10-11T10:13:01.768Z,11.01
2022-10-11T10:15:37.751Z,11.12
2022-10-11T10:18:06.326Z,11.18
2022-10-11T10:20:34.135Z,11.12
2022-10-11T10:23:10.678Z,11.23
2022-10-11T10:25:43.381Z,11.23
2022-10-11T10:28:25.964Z,11.28
2022-10-11T10:30:58.728Z,11.23
2022-10-11T10:33:27.175Z,11.25
2022-10-11T10:36:06.005Z,11.39
2022-10-11T10:38:33.923Z,11.32
2022-10-11T10:41:06.054Z,11.40
2022-10-11T10:43:36.509Z,11.36
2022-10-11T10:46:21.646Z,11.45
2022-10-11T10:49:23.586Z,11.48
2022-10-11T10:51:43.654Z,11.76
2022-10-11T10:54:28.263Z,11.82
2022-10-11T10:57:02.768Z,11.93
2022-10-11T10:59:32.249Z,11.94
2022-10-11T11:02:15.958Z,11.98
2022-10-11T11:05:00.785Z,11.98
2022-10-11T11:07:32.389Z,11.80
2022-10-11T11:10:05.592Z,11.96
2022-10-11T11:12:39.885Z,12.13
2022-10-11T11:15:06.239Z,12.18
2022-10-11T11:17:45.153Z,12.22
2022-10-11T11:20:14.612Z,12.25
2022-10-11T11:22:41.127Z,12.28
2022-10-11T11:25:14.630Z,12.21
2022-10-11T11:27:41.286Z,12.37
2022-10-11T11:30:13.522Z,12.41
2022-10-11T11:32:55.036Z,12.44
2022-10-11T11:35:32.006Z,12.55
2022-10-11T11:38:06.352Z,12.68
2022-10-11T11:40:37.218Z,12.73
2022-10-11T11:43:12.394Z,12.48
2022-10-11T11:46:00.519Z,12.43
2022-10-11T11:48:26.995Z,12.29
2022-10-11T11:50:56.616Z,12.32
2022-10-11T11:53:31.504Z,12.28
2022-10-11T11:56:01.027Z,12.53
2022-10-11T11:58:46.005Z,12.77
2022-10-11T12:01:18.270Z,12.69
2022-10-11T12:03:48.839Z,12.71
2022-10-11T12:06:15.923Z,12.98
2022-10-11T12:08:43.521Z,13.25
2022-10-11T12:11:24.261Z,13.27
2022-10-11T12:13:52.342Z,13.12
2022-10-11T12:16:19.194Z,13.02
2022-10-11T12:18:48.524Z,13.09
2022-10-11T12:21:24.787Z,13.02
2022-10-11T12:23:52.500Z,13.22
2022-10-11T12:26:31.547Z,13.54
2022-10-11T12:29:16.937Z,13.55
2022-10-11T12:31:46.217Z,13.34
2022-10-11T12:34:17.566Z,13.34
2022-10-11T12:36:45.203Z,13.38
2022-10-11T12:39:20.873Z,13.35
2022-10-11T12:41:47.195Z,13.62
2022-10-11T12:44:23.881Z,13.77
2022-10-11T12:46:50.221Z,13.64
2022-10-11T12:49:16.528Z,13.73
2022-10-11T12:52:03.141Z,13.71
2022-10-11T12:54:38.216Z,13.75
2022-10-11T12:57:32.438Z,13.72
2022-10-11T13:00:08.218Z,13.83
2022-10-11T13:02:39.200Z,13.90
2022-10-11T13:05:18.078Z,13.97
2022-10-11T13:07:45.088Z,13.97
2022-10-11T13:10:16.180Z,13.94
2022-10-11T13:12:43.366Z,14.08
2022-10-11T13:15:14.651Z,14.12
2022-10-11T13:17:41.236Z,14.16
2022-10-11T13:20:17.098Z,14.22
2022-10-11T13:22:44.258Z,14.26
2022-10-11T13:25:14.446Z,14.26
2022-10-11T13:27:40.826Z,14.49
2022-10-11T13:30:11.097Z,14.56
2022-10-11T13:32:37.472Z,14.75
2022-10-11T13:35:14.456Z,14.81
2022-10-11T13:37:44.038Z,14.96
2022-10-11T13:40:14.638Z,15.04
2022-10-11T13:42:41.184Z,14.98
2022-10-11T13:45:12.734Z,15.10
2022-10-11T13:47:39.543Z,15.09
2022-10-11T13:50:09.189Z,15.14
2022-10-11T13:52:35.701Z,15.30
2022-10-11T13:55:05.829Z,15.27
2022-10-11T13:57:34.972Z,15.12
2022-10-11T14:00:02.528Z,15.22
2022-10-11T14:02:38.486Z,15.16
2022-10-11T14:05:05.118Z,15.04
2022-10-11T14:07:35.869Z,15.19
2022-10-11T14:10:03.131Z,15.06
2022-10-11T14:12:39.595Z,15.15
2022-10-11T14:15:26.311Z,15.38
2022-10-11T14:17:52.789Z,15.30
2022-10-11T14:20:33.393Z,15.45
2022-10-11T14:23:00.098Z,15.65
2022-10-11T14:25:26.914Z,15.46
2022-10-11T14:27:54.840Z,15.25
2022-10-11T14:30:27.455Z,15.46
2022-10-11T14:32:56.450Z,15.60
2022-10-11T14:35:28.545Z,15.59
2022-10-11T14:37:55.074Z,15.41
2022-10-11T14:40:22.831Z,15.31
2022-10-11T14:42:49.522Z,15.39
2022-10-11T14:45:16.427Z,15.36
2022-10-11T14:47:43.413Z,15.39
2022-10-11T14:50:32.684Z,15.50
2022-10-11T14:52:59.843Z,15.52
2022-10-11T14:55:26.368Z,15.42
2022-10-11T14:57:52.768Z,15.43
2022-10-11T15:00:24.528Z,15.31
2022-10-11T15:02:52.671Z,15.38
2022-10-11T15:05:20.397Z,15.29
2022-10-11T15:07:47.151Z,15.34
2022-10-11T15:10:24.153Z,15.35
2022-10-11T15:12:51.652Z,15.25
2022-10-11T15:15:22.794Z,15.22
2022-10-11T15:17:50.784Z,15.08
2022-10-11T15:20:19.533Z,15.05
2022-10-11T15:22:46.149Z,15.05
2022-10-11T15:25:12.731Z,15.17
2022-10-11T15:27:39.130Z,15.13
2022-10-11T15:30:25.791Z,15.18
2022-10-11T15:32:53.123Z,14.97
2022-10-11T15:35:20.803Z,15.09
2022-10-11T15:37:47.659Z,15.15
2022-10-11T15:40:25.812Z,15.23
2022-10-11T15:42:53.402Z,15.10
2022-10-11T15:45:20.216Z,15.19
2022-10-11T15:47:47.635Z,15.29
2022-10-11T15:50:15.767Z,15.33
2022-10-11T15:52:42.945Z,15.19
2022-10-11T15:55:09.296Z,15.26
2022-10-11T15:57:35.744Z,15.20
2022-10-11T16:00:03.039Z,15.15
2022-10-11T16:02:38.282Z,15.16
2022-10-11T16:05:04.854Z,15.06
2022-10-11T16:07:32.663Z,14.99
2022-10-11T16:09:59.227Z,15.03
2022-10-11T16:12:28.649Z,14.91
2022-10-11T16:14:55.142Z,14.81
2022-10-11T16:17:21.542Z,14.89
2022-10-11T16:19:47.978Z,14.98
2022-10-11T16:22:14.428Z,15.02
2022-10-11T16:24:41.785Z,14.99
2022-10-11T16:27:08.170Z,15.01
2022-10-11T16:29:34.573Z,15.05
2022-10-11T16:32:00.927Z,15.05
2022-10-11T16:34:27.341Z,15.03
2022-10-11T16:36:53.739Z,14.93
2022-10-11T16:39:20.517Z,14.88
2022-10-11T16:41:47.324Z,14.81
2022-10-11T16:44:14.616Z,14.79
2022-10-11T16:46:41.406Z,14.82
2022-10-11T16:49:07.941Z,14.80
2022-10-11T16:51:34.412Z,14.81
2022-10-11T16:54:01.126Z,14.79
2022-10-11T16:56:27.908Z,14.76
2022-10-11T16:58:54.439Z,14.70
2022-10-11T17:01:20.982Z,14.67
2022-10-11T17:03:48.702Z,14.61
2022-10-11T17:06:15.144Z,14.55
2022-10-11T17:08:41.586Z,14.54
2022-10-11T17:11:08.140Z,14.49
2022-10-11T17:13:34.489Z,14.43
2022-10-11T17:16:00.841Z,14.37
2022-10-11T17:18:27.205Z,14.31
2022-10-11T17:21:02.739Z,14.28
2022-10-11T17:23:29.104Z,14.23
2022-10-11T17:25:55.496Z,14.14
2022-10-11T17:28:22.097Z,14.10
2022-10-11T17:30:55.655Z,14.06
2022-10-11T17:33:26.148Z,14.07
2022-10-11T17:35:53.259Z,14.03
2022-10-11T17:38:20.745Z,13.99
2022-10-11T17:40:47.442Z,13.98
2022-10-11T17:43:15.623Z,13.94
2022-10-11T17:45:42.067Z,13.88
2022-10-11T17:48:08.443Z,13.83
2022-10-11T17:50:34.844Z,13.81
2022-10-11T17:53:01.390Z,13.78
2022-10-11T17:55:27.768Z,13.77
2022-10-11T17:57:54.193Z,13.76
2022-10-11T18:00:20.604Z,13.73
2022-10-11T18:02:50.486Z,13.71
2022-10-11T18:05:17.590Z,13.68
2022-10-11T18:07:43.939Z,13.62
2022-10-11T18:10:10.364Z,13.58
2022-10-11T18:12:36.738Z,13.52
2022-10-11T18:15:03.240Z,13.48
2022-10-11T18:17:29.592Z,13.44
2022-10-11T18:19:56.525Z,13.34
2022-10-11T18:22:23.025Z,13.34
2022-10-11T18:24:49.520Z,13.35
2022-10-11T18:27:15.982Z,13.31
2022-10-11T18:29:43.486Z,13.27
2022-10-11T18:32:10.020Z,13.23
2022-10-11T18:34:36.600Z,13.20
2022-10-11T18:37:03.254Z,13.20
2022-10-11T18:39:29.684Z,13.14
2022-10-11T18:41:56.062Z,13.10
2022-10-11T18:44:22.575Z,13.02
2022-10-11T18:46:50.297Z,13.00
2022-10-11T18:49:16.683Z,12.97
2022-10-11T18:51:44.922Z,12.88
2022-10-11T18:54:13.966Z,12.87
2022-10-11T18:56:43.235Z,12.86
2022-10-11T18:59:10.014Z,12.87
2022-10-11T19:01:41.357Z,12.89
2022-10-11T19:04:09.407Z,12.86
2022-10-11T19:06:39.024Z,12.83
2022-10-11T19:09:06.667Z,12.87
2022-10-11T19:11:33.145Z,12.81
2022-10-11T19:14:25.837Z,12.80
2022-10-11T19:16:52.866Z,12.78
2022-10-11T19:19:20.436Z,12.75
2022-10-11T19:21:48.593Z,12.72
2022-10-11T19:24:18.898Z,12.69
2022-10-11T19:26:45.287Z,12.70
2022-10-11T19:29:15.820Z,12.65
2022-10-11T19:31:44.009Z,12.61
2022-10-11T19:34:13.474Z,12.58
2022-10-11T19:36:42.578Z,12.55
2022-10-11T19:39:12.484Z,12.51
2022-10-11T19:41:38.856Z,12.53
2022-10-11T19:44:05.562Z,12.52
2022-10-11T19:46:50.959Z,12.52
2022-10-11T19:49:23.487Z,12.47
2022-10-11T19:51:50.249Z,12.43
2022-10-11T19:54:16.790Z,12.38
2022-10-11T19:56:43.558Z,12.29
2022-10-11T19:59:10.445Z,12.25
2022-10-11T20:01:36.983Z,12.22
2022-10-11T20:04:04.942Z,12.23
2022-10-11T20:06:38.624Z,12.19
2022-10-11T20:09:27.983Z,12.15
2022-10-11T20:11:52.435Z,12.16
2022-10-11T20:14:18.916Z,12.14
2022-10-11T20:16:45.336Z,12.11
2022-10-11T20:19:11.781Z,12.07
2022-10-11T20:21:38.525Z,12.11
2022-10-11T20:24:05.277Z,12.09
2022-10-11T20:26:31.950Z,12.06
2022-10-11T20:28:58.656Z,12.04
2022-10-11T20:31:26.676Z,12.00
2022-10-11T20:33:57.551Z,11.98
2022-10-11T20:36:25.011Z,11.93
2022-10-11T20:38:52.272Z,11.93
2022-10-11T20:41:20.177Z,11.87
2022-10-11T20:43:50.879Z,11.89
2022-10-11T20:46:18.906Z,11.85
2022-10-11T20:49:05.522Z,11.76
2022-10-11T20:51:33.485Z,11.67
2022-10-11T20:54:00.874Z,11.64
2022-10-11T20:56:28.043Z,11.67
2022-10-11T20:58:55.136Z,11.69
2022-10-11T21:01:22.857Z,11.71
2022-10-11T21:03:50.353Z,11.73
2022-10-11T21:06:16.913Z,11.71
2022-10-11T21:08:43.688Z,11.70
2022-10-11T21:11:10.822Z,11.69
2022-10-11T21:13:37.759Z,11.65
2022-10-11T21:16:05.413Z,11.61
2022-10-11T21:18:32.121Z,11.56
2022-10-11T21:21:04.312Z,11.53
2022-10-11T21:23:30.756Z,11.52
2022-10-11T21:26:00.093Z,11.51
2022-10-11T21:28:26.818Z,11.49
2022-10-11T21:30:53.218Z,11.51
2022-10-11T21:33:19.621Z,11.50
2022-10-11T21:35:46.072Z,11.49
2022-10-11T21:38:13.298Z,11.47
2022-10-11T21:40:40.769Z,11.43
2022-10-11T21:43:07.614Z,11.35
2022-10-11T21:45:37.923Z,11.28
2022-10-11T21:48:04.778Z,11.23
2022-10-11T21:50:31.643Z,11.18
2022-10-11T21:52:58.179Z,11.17
2022-10-11T21:55:25.899Z,11.09
2022-10-11T21:57:52.292Z,11.05
2022-10-11T22:00:18.731Z,10.94
2022-10-11T22:02:45.100Z,10.82
2022-10-11T22:05:11.462Z,10.82
2022-10-11T22:07:37.997Z,10.85
2022-10-11T22:10:04.614Z,10.87
2022-10-11T22:12:30.976Z,10.91
2022-10-11T22:14:57.432Z,10.91
2022-10-11T22:17:24.009Z,10.92
2022-10-11T22:19:50.442Z,10.83
2022-10-11T22:22:17.034Z,10.87
2022-10-11T22:24:43.420Z,10.88
2022-10-11T22:27:09.939Z,10.84
2022-10-11T22:29:36.328Z,10.82
2022-10-11T22:32:02.741Z,10.83
2022-10-11T22:34:32.645Z,10.83
2022-10-11T22:36:58.995Z,10.85
2022-10-11T22:39:25.617Z,10.84
2022-10-11T22:41:53.164Z,10.84
2022-10-11T22:44:19.519Z,10.84
2022-10-11T22:46:46.372Z,10.80
2022-10-11T22:49:12.785Z,10.77
2022-10-11T22:51:39.163Z,10.69
2022-10-11T22:54:05.666Z,10.60
2022-10-11T22:56:32.099Z,10.54
2022-10-11T22:58:58.824Z,10.44
2022-10-11T23:01:25.197Z,10.37
2022-10-11T23:03:51.603Z,10.32
2022-10-11T23:06:18.061Z,10.26
2022-10-11T23:08:44.427Z,10.20
2022-10-11T23:11:11.275Z,10.18
2022-10-11T23:13:37.800Z,10.17
2022-10-11T23:16:11.147Z,10.15
2022-10-11T23:18:37.759Z,10.06
2022-10-11T23:21:05.049Z,9.96
2022-10-11T23:23:31.426Z,9.82
2022-10-11T23:26:06.721Z,9.69
2022-10-11T23:28:33.679Z,9.58
2022-10-11T23:31:00.284Z,9.49
2022-10-11T23:33:27.937Z,9.45
2022-10-11T23:35:54.291Z,9.43
2022-10-11T23:38:20.678Z,9.44
2022-10-11T23:40:47.035Z,9.45
2022-10-11T23:43:13.441Z,9.44
2022-10-11T23:45:39.814Z,9.43
2022-10-11T23:48:06.273Z,9.42
2022-10-11T23:50:32.667Z,9.41
2022-10-11T23:52:58.998Z,9.41
2022-10-11T23:55:25.408Z,9.41
2022-10-11T23:57:51.856Z,9.39
